createdAt,value
2022-10-21T00:00:43.072Z,2.10
2022-10-21T00:01:53.315Z,1.55
2022-10-21T00:02:55.944Z,2.53
2022-10-21T00:04:02.839Z,2.40
2022-10-21T00:05:05.560Z,0.77
2022-10-21T00:06:16.032Z,2.00
2022-10-21T00:07:18.632Z,0.13
2022-10-21T00:08:22.489Z,1.63
2022-10-21T00:09:25.043Z,1.27
2022-10-21T00:10:28.709Z,1.23
2022-10-21T00:11:38.013Z,0.38
2022-10-21T00:12:41.627Z,1.10
2022-10-21T00:13:44.269Z,1.13
2022-10-21T00:14:47.740Z,2.85
2022-10-21T00:15:58.993Z,1.50
2022-10-21T00:17:09.020Z,0.75
2022-10-21T00:18:11.675Z,0.45
2022-10-21T00:19:16.474Z,0.95
2022-10-21T00:20:19.133Z,1.38
2022-10-21T00:21:23.776Z,0.30
2022-10-21T00:22:33.024Z,0.95
2022-10-21T00:23:36.563Z,0.77
2022-10-21T00:24:39.192Z,0.93
2022-10-21T00:25:42.638Z,1.30
2022-10-21T00:26:52.078Z,0.95
2022-10-21T00:27:55.643Z,0.32
2022-10-21T00:28:58.570Z,2.10
2022-10-21T00:30:02.173Z,0.25
2022-10-21T00:31:06.644Z,0.82
2022-10-21T00:32:17.044Z,0.73
2022-10-21T00:33:19.646Z,0.60
2022-10-21T00:34:31.186Z,0.50
2022-10-21T00:35:34.330Z,1.48
2022-10-21T00:36:37.891Z,0.20
2022-10-21T00:37:40.784Z,1.50
2022-10-21T00:38:52.039Z,0.98
2022-10-21T00:39:54.586Z,1.15
2022-10-21T00:40:58.575Z,1.48
2022-10-21T00:42:01.076Z,0.77
2022-10-21T00:43:04.639Z,0.82
2022-10-21T00:44:15.071Z,1.15
2022-10-21T00:45:18.984Z,0.35
2022-10-21T00:46:23.000Z,0.80
2022-10-21T00:47:25.530Z,0.60
2022-10-21T00:48:32.867Z,0.52
2022-10-21T00:49:45.027Z,1.00
2022-10-21T00:50:52.848Z,1.35
2022-10-21T00:51:58.345Z,0.52
2022-10-21T00:53:02.502Z,1.55
2022-10-21T00:54:05.518Z,1.23
2022-10-21T00:55:16.045Z,1.77
2022-10-21T00:56:21.067Z,0.45
2022-10-21T00:57:25.718Z,0.45
2022-10-21T00:58:30.733Z,0.93
2022-10-21T00:59:42.064Z,0.98
2022-10-21T01:00:51.062Z,0.75
2022-10-21T01:02:01.209Z,0.77
2022-10-21T01:03:04.350Z,0.30
2022-10-21T01:04:14.098Z,1.10
2022-10-21T01:05:18.414Z,0.35
2022-10-21T01:06:23.206Z,1.20
2022-10-21T01:07:26.126Z,0.75
2022-10-21T01:08:30.472Z,1.15
2022-10-21T01:09:41.029Z,0.60
2022-10-21T01:10:43.639Z,2.70
2022-10-21T01:11:48.169Z,0.40
2022-10-21T01:12:56.284Z,1.45
2022-10-21T01:14:08.472Z,1.15
2022-10-21T01:15:20.032Z,0.63
2022-10-21T01:16:34.041Z,2.17
2022-10-21T01:17:45.614Z,1.13
2022-10-21T01:18:52.613Z,1.38
2022-10-21T01:20:13.698Z,1.67
2022-10-21T01:21:27.989Z,0.50
2022-10-21T01:22:46.028Z,1.83
2022-10-21T01:24:07.426Z,1.17
2022-10-21T01:25:25.553Z,0.98
2022-10-21T01:26:40.686Z,2.40
2022-10-21T01:27:58.029Z,1.65
2022-10-21T01:29:10.640Z,1.75
2022-10-21T01:30:32.002Z,1.50
2022-10-21T01:31:38.487Z,0.93
2022-10-21T01:33:06.121Z,0.57
2022-10-21T01:34:12.182Z,0.65
2022-10-21T01:35:20.462Z,1.33
2022-10-21T01:36:32.668Z,1.17
2022-10-21T01:37:40.418Z,0.32
2022-10-21T01:38:52.063Z,2.33
2022-10-21T01:39:56.282Z,1.52
2022-10-21T01:41:03.123Z,0.73
2022-10-21T01:42:07.738Z,0.32
2022-10-21T01:43:16.455Z,0.55
2022-10-21T01:44:29.061Z,1.15
2022-10-21T01:45:35.096Z,0.65
2022-10-21T01:46:41.412Z,0.57
2022-10-21T01:47:47.373Z,1.63
2022-10-21T01:49:00.044Z,1.00
2022-10-21T01:50:13.070Z,0.20
2022-10-21T01:51:17.315Z,1.33
2022-10-21T01:52:20.981Z,0.65
2022-10-21T01:53:34.038Z,0.93
2022-10-21T01:54:39.693Z,0.82
2022-10-21T01:55:43.078Z,0.47
2022-10-21T01:56:54.050Z,1.10
2022-10-21T01:57:59.059Z,0.82
2022-10-21T01:59:03.390Z,1.58
2022-10-21T02:00:06.762Z,1.55
2022-10-21T02:01:24.138Z,2.65
2022-10-21T02:02:29.890Z,0.50
2022-10-21T02:03:34.813Z,1.70
2022-10-21T02:04:39.375Z,1.75
2022-10-21T02:05:43.081Z,1.52
2022-10-21T02:06:53.055Z,1.10
2022-10-21T02:07:55.801Z,0.88
2022-10-21T02:08:59.415Z,1.60
2022-10-21T02:10:02.013Z,1.02
2022-10-21T02:11:07.498Z,1.38
2022-10-21T02:12:18.053Z,1.23
2022-10-21T02:13:25.043Z,0.20
2022-10-21T02:14:31.359Z,0.38
2022-10-21T02:15:35.575Z,1.15
2022-10-21T02:16:39.754Z,0.25
2022-10-21T02:17:54.086Z,0.40
2022-10-21T02:18:57.640Z,0.57
2022-10-21T02:20:01.941Z,0.90
2022-10-21T02:21:07.715Z,0.50
2022-10-21T02:22:11.204Z,0.30
2022-10-21T02:23:24.060Z,0.75
2022-10-21T02:24:29.766Z,1.17
2022-10-21T02:25:35.302Z,0.93
2022-10-21T02:26:38.139Z,1.27
2022-10-21T02:27:48.040Z,1.08
2022-10-21T02:28:51.014Z,1.50
2022-10-21T02:30:03.043Z,0.95
2022-10-21T02:31:10.828Z,2.10
2022-10-21T02:32:20.230Z,0.75
2022-10-21T02:33:29.031Z,1.13
2022-10-21T02:34:43.511Z,0.63
2022-10-21T02:35:51.033Z,2.17
2022-10-21T02:36:57.692Z,0.57
2022-10-21T02:38:02.377Z,1.25
2022-10-21T02:39:08.676Z,0.17
2022-10-21T02:40:21.022Z,0.68
2022-10-21T02:41:25.316Z,0.45
2022-10-21T02:42:32.882Z,2.22
2022-10-21T02:43:37.362Z,1.35
2022-10-21T02:44:49.049Z,1.65
2022-10-21T02:45:59.036Z,1.33
2022-10-21T02:47:02.761Z,0.35
2022-10-21T02:48:05.486Z,0.85
2022-10-21T02:49:10.461Z,1.42
2022-10-21T02:50:13.270Z,0.93
2022-10-21T02:51:24.053Z,0.82
2022-10-21T02:52:26.719Z,0.50
2022-10-21T02:53:30.204Z,3.30
2022-10-21T02:54:32.792Z,1.90
2022-10-21T02:55:36.244Z,0.88
2022-10-21T02:56:45.086Z,0.47
2022-10-21T02:57:48.555Z,1.40
2022-10-21T02:58:51.096Z,0.95
2022-10-21T02:59:54.642Z,1.85
2022-10-21T03:01:10.138Z,1.05
2022-10-21T03:02:20.314Z,0.63
2022-10-21T03:03:22.956Z,1.67
2022-10-21T03:04:27.726Z,1.52
2022-10-21T03:06:40.034Z,1.75
2022-10-21T03:07:49.086Z,1.40
2022-10-21T03:08:52.644Z,1.08
2022-10-21T03:09:55.217Z,0.80
2022-10-21T03:10:58.729Z,0.45
2022-10-21T03:12:01.277Z,1.33
2022-10-21T03:13:11.042Z,0.65
2022-10-21T03:14:13.678Z,1.70
2022-10-21T03:15:17.226Z,0.93
2022-10-21T03:16:19.862Z,1.20
2022-10-21T03:17:25.256Z,1.50
2022-10-21T03:18:35.040Z,1.80
2022-10-21T03:19:39.838Z,1.45
2022-10-21T03:20:42.352Z,0.50
2022-10-21T03:21:45.820Z,0.90
2022-10-21T03:22:48.459Z,0.85
2022-10-21T03:23:58.053Z,0.73
2022-10-21T03:25:00.638Z,0.30
2022-10-21T03:26:04.124Z,1.60
2022-10-21T03:27:06.856Z,0.40
2022-10-21T03:28:17.040Z,1.50
2022-10-21T03:29:19.569Z,1.02
2022-10-21T03:30:23.048Z,1.10
2022-10-21T03:31:25.591Z,0.90
2022-10-21T03:32:29.073Z,0.22
2022-10-21T03:33:38.088Z,0.68
2022-10-21T03:34:42.899Z,0.63
2022-10-21T03:35:45.420Z,0.90
2022-10-21T03:36:48.900Z,0.32
2022-10-21T03:37:51.496Z,1.40
2022-10-21T03:39:02.052Z,1.55
2022-10-21T03:40:06.443Z,0.80
2022-10-21T03:41:12.138Z,1.25
2022-10-21T03:42:14.687Z,0.80
2022-10-21T03:43:25.054Z,0.82
2022-10-21T03:44:27.581Z,0.55
2022-10-21T03:45:38.050Z,0.22
2022-10-21T03:46:40.654Z,0.55
2022-10-21T03:47:44.109Z,1.52
2022-10-21T03:48:46.639Z,0.25
2022-10-21T03:49:51.443Z,0.20
2022-10-21T03:51:03.047Z,0.73
2022-10-21T03:52:06.554Z,0.85
2022-10-21T03:53:24.149Z,0.55
2022-10-21T03:54:32.579Z,0.35
2022-10-21T03:55:36.056Z,0.82
2022-10-21T03:56:45.088Z,1.08
2022-10-21T03:57:48.553Z,1.10
2022-10-21T03:58:54.000Z,0.40
2022-10-21T04:00:01.341Z,0.47
2022-10-21T04:01:11.549Z,0.45
2022-10-21T04:02:28.058Z,0.50
2022-10-21T04:03:30.833Z,0.85
2022-10-21T04:04:41.108Z,1.50
2022-10-21T04:05:44.932Z,0.63
2022-10-21T04:06:48.419Z,1.00
2022-10-21T04:07:53.131Z,0.20
2022-10-21T04:08:57.161Z,1.50
2022-10-21T04:10:06.080Z,1.17
2022-10-21T04:11:16.229Z,0.98
2022-10-21T04:12:25.064Z,0.70
2022-10-21T04:13:35.354Z,1.33
2022-10-21T04:14:38.011Z,0.75
2022-10-21T04:15:48.059Z,1.65
2022-10-21T04:17:02.177Z,0.95
2022-10-21T04:18:14.094Z,0.40
2022-10-21T04:19:19.264Z,0.08
2022-10-21T04:20:21.903Z,0.38
2022-10-21T04:21:26.751Z,0.50
2022-10-21T04:22:29.301Z,1.42
2022-10-21T04:23:39.043Z,0.88
2022-10-21T04:24:41.645Z,1.20
2022-10-21T04:25:45.836Z,0.55
2022-10-21T04:26:48.385Z,1.38
2022-10-21T04:27:58.440Z,0.98
2022-10-21T04:29:01.019Z,0.68
2022-10-21T04:30:04.496Z,1.42
2022-10-21T04:31:07.005Z,1.13
2022-10-21T04:32:10.535Z,0.82
2022-10-21T04:33:20.112Z,0.68
2022-10-21T04:34:23.593Z,0.93
2022-10-21T04:35:26.136Z,0.65
2022-10-21T04:36:31.077Z,1.23
2022-10-21T04:37:33.659Z,0.98
2022-10-21T04:38:44.060Z,0.70
2022-10-21T04:39:47.598Z,1.60
2022-10-21T04:40:56.179Z,0.70
2022-10-21T04:42:06.059Z,1.13
2022-10-21T04:43:09.514Z,0.68
2022-10-21T04:44:12.513Z,1.20
2022-10-21T04:45:23.070Z,0.55
2022-10-21T04:46:32.067Z,0.93
2022-10-21T04:47:35.723Z,0.82
2022-10-21T04:48:38.671Z,0.93
2022-10-21T04:49:42.237Z,0.82
2022-10-21T04:50:44.783Z,0.88
2022-10-21T04:51:56.125Z,0.70
2022-10-21T04:52:58.666Z,0.52
2022-10-21T04:54:02.147Z,1.33
2022-10-21T04:55:06.044Z,0.30
2022-10-21T04:56:09.716Z,0.82
2022-10-21T04:57:20.054Z,0.38
2022-10-21T04:58:23.705Z,0.70
2022-10-21T04:59:26.290Z,0.70
2022-10-21T05:00:29.796Z,0.60
2022-10-21T05:01:47.049Z,1.55
2022-10-21T05:03:04.071Z,1.02
2022-10-21T05:04:07.570Z,0.85
2022-10-21T05:05:10.288Z,2.05
2022-10-21T05:06:13.750Z,1.02
2022-10-21T05:07:24.076Z,0.70
2022-10-21T05:08:27.697Z,0.15
2022-10-21T05:09:30.471Z,0.70
2022-10-21T05:10:34.272Z,0.82
2022-10-21T05:11:37.074Z,1.50
2022-10-21T05:12:47.085Z,0.43
2022-10-21T05:13:56.051Z,1.80
2022-10-21T05:15:00.616Z,0.52
2022-10-21T05:16:04.243Z,1.00
2022-10-21T05:17:14.081Z,0.75
2022-10-21T05:18:23.133Z,0.38
2022-10-21T05:19:31.007Z,0.45
2022-10-21T05:20:33.847Z,1.00
2022-10-21T05:22:46.429Z,1.20
2022-10-21T05:23:57.083Z,3.13
2022-10-21T05:24:59.640Z,0.28
2022-10-21T05:26:03.166Z,0.95
2022-10-21T05:27:05.713Z,0.57
2022-10-21T05:28:09.183Z,1.02
2022-10-21T05:29:18.037Z,3.65
2022-10-21T05:30:21.469Z,1.27
2022-10-21T05:31:24.233Z,0.45
2022-10-21T05:32:28.062Z,0.93
2022-10-21T05:33:30.770Z,0.77
2022-10-21T05:34:41.042Z,0.52
2022-10-21T05:35:43.610Z,0.47
2022-10-21T05:36:47.053Z,0.60
2022-10-21T05:37:50.939Z,1.00
2022-10-21T05:38:54.492Z,0.73
2022-10-21T05:40:03.086Z,1.35
2022-10-21T05:41:13.045Z,1.27
2022-10-21T05:42:16.509Z,0.30
2022-10-21T05:43:19.952Z,0.20
2022-10-21T05:44:29.111Z,0.25
2022-10-21T05:45:39.133Z,0.75
2022-10-21T05:46:41.684Z,1.25
2022-10-21T05:47:45.402Z,0.75
2022-10-21T05:49:53.010Z,0.55
2022-10-21T05:51:03.137Z,0.52
2022-10-21T05:52:06.633Z,0.57
2022-10-21T05:53:10.522Z,0.30
2022-10-21T05:54:14.011Z,1.02
2022-10-21T05:55:16.575Z,1.20
2022-10-21T05:56:27.079Z,1.80
2022-10-21T05:57:37.194Z,0.45
2022-10-21T05:58:39.762Z,0.65
2022-10-21T05:59:43.202Z,0.35
2022-10-21T06:00:45.818Z,0.70
2022-10-21T06:01:56.214Z,0.60
2022-10-21T06:03:13.101Z,2.08
2022-10-21T06:04:16.563Z,1.52
2022-10-21T06:05:19.395Z,1.95
2022-10-21T06:06:22.937Z,0.77
2022-10-21T06:07:25.477Z,0.93
2022-10-21T06:08:37.075Z,1.00
2022-10-21T06:09:40.559Z,1.15
2022-10-21T06:10:43.123Z,1.83
2022-10-21T06:11:46.558Z,0.82
2022-10-21T06:12:49.104Z,1.75
2022-10-21T06:13:59.122Z,1.35
2022-10-21T06:15:01.614Z,0.50
2022-10-21T06:17:08.157Z,0.68
2022-10-21T06:18:11.622Z,0.00
2022-10-21T06:19:21.083Z,0.15
2022-10-21T06:20:31.086Z,0.20
2022-10-21T06:21:34.547Z,0.30
2022-10-21T06:22:37.073Z,1.02
2022-10-21T06:23:41.922Z,0.28
2022-10-21T06:24:51.081Z,1.52
2022-10-21T06:26:05.109Z,0.32
2022-10-21T06:27:08.640Z,1.15
2022-10-21T06:28:12.134Z,1.20
2022-10-21T06:29:15.923Z,1.25
2022-10-21T06:30:26.081Z,0.88
2022-10-21T06:31:28.583Z,0.63
2022-10-21T06:32:32.944Z,0.43
2022-10-21T06:33:35.806Z,1.35
2022-10-21T06:34:46.112Z,1.05
2022-10-21T06:35:48.758Z,0.60
2022-10-21T06:36:52.223Z,0.50
2022-10-21T06:37:54.812Z,0.50
2022-10-21T06:38:59.563Z,1.60
2022-10-21T06:40:09.078Z,1.55
2022-10-21T06:41:13.967Z,1.20
2022-10-21T06:42:24.047Z,0.75
2022-10-21T06:43:26.585Z,1.65
2022-10-21T06:44:30.061Z,1.08
2022-10-21T06:45:32.671Z,1.15
2022-10-21T06:46:36.224Z,0.38
2022-10-21T06:47:45.093Z,0.45
2022-10-21T06:48:48.572Z,1.02
2022-10-21T06:49:51.103Z,0.10
2022-10-21T06:50:58.135Z,1.58
2022-10-21T06:52:09.249Z,0.95
2022-10-21T06:53:12.756Z,1.55
2022-10-21T06:54:16.687Z,1.80
2022-10-21T06:55:20.271Z,0.60
2022-10-21T06:56:23.150Z,1.27
2022-10-21T06:57:34.091Z,0.10
2022-10-21T06:58:36.894Z,1.90
2022-10-21T06:59:40.363Z,2.08
2022-10-21T07:00:43.113Z,1.25
2022-10-21T07:02:00.092Z,1.27
2022-10-21T07:03:16.077Z,1.02
2022-10-21T07:04:26.088Z,0.00
2022-10-21T07:05:28.670Z,0.10
2022-10-21T07:07:43.100Z,2.58
2022-10-21T07:08:57.205Z,0.85
2022-10-21T07:10:02.907Z,1.27
2022-10-21T07:11:05.477Z,0.45
2022-10-21T07:12:15.116Z,1.33
2022-10-21T07:13:19.358Z,0.52
2022-10-21T07:14:32.046Z,1.15
2022-10-21T07:15:34.986Z,1.85
2022-10-21T07:16:38.685Z,3.17
2022-10-21T07:17:41.444Z,0.47
2022-10-21T07:18:45.263Z,0.93
2022-10-21T07:19:55.064Z,1.45
2022-10-21T07:21:03.425Z,1.20
2022-10-21T07:22:06.919Z,0.85
2022-10-21T07:23:09.476Z,1.95
2022-10-21T07:24:22.561Z,2.05
2022-10-21T07:25:27.807Z,0.88
2022-10-21T07:26:31.584Z,1.23
2022-10-21T07:27:35.246Z,0.90
2022-10-21T07:28:39.047Z,2.40
2022-10-21T07:29:49.091Z,1.27
2022-10-21T07:30:51.631Z,0.98
2022-10-21T07:31:55.132Z,1.10
2022-10-21T07:32:57.681Z,0.85
2022-10-21T07:34:01.487Z,1.20
2022-10-21T07:35:11.092Z,0.60
2022-10-21T07:36:15.932Z,1.50
2022-10-21T07:37:18.481Z,1.77
2022-10-21T07:38:22.910Z,2.20
2022-10-21T07:39:34.084Z,0.70
2022-10-21T07:40:44.262Z,0.73
2022-10-21T07:41:48.656Z,1.60
2022-10-21T07:42:51.223Z,1.05
2022-10-21T07:43:55.134Z,1.23
2022-10-21T07:45:08.068Z,1.77
2022-10-21T07:46:11.755Z,0.88
2022-10-21T07:47:22.212Z,1.38
2022-10-21T07:48:26.140Z,1.52
2022-10-21T07:49:29.508Z,1.00
2022-10-21T07:50:33.041Z,1.02
2022-10-21T07:51:42.068Z,2.13
2022-10-21T07:53:00.715Z,0.85
2022-10-21T07:54:10.062Z,1.23
2022-10-21T07:55:12.807Z,1.40
2022-10-21T07:56:18.938Z,0.88
2022-10-21T07:57:21.524Z,1.10
2022-10-21T07:58:31.084Z,0.88
2022-10-21T07:59:34.584Z,1.27
2022-10-21T08:00:37.130Z,1.20
2022-10-21T08:03:05.170Z,1.92
2022-10-21T08:04:07.718Z,0.73
2022-10-21T08:05:11.111Z,1.45
2022-10-21T08:06:14.634Z,2.40
2022-10-21T08:07:18.062Z,0.32
2022-10-21T08:08:28.171Z,0.85
2022-10-21T08:09:31.674Z,1.25
2022-10-21T08:10:39.603Z,1.90
2022-10-21T08:11:44.557Z,1.38
2022-10-21T08:12:48.355Z,1.50
2022-10-21T08:13:57.095Z,2.30
2022-10-21T08:15:00.520Z,2.05
2022-10-21T08:16:05.954Z,3.03
2022-10-21T08:17:09.343Z,1.10
2022-10-21T08:18:11.826Z,0.90
2022-10-21T08:19:26.037Z,1.15
2022-10-21T08:20:29.520Z,1.55
2022-10-21T08:21:39.137Z,1.85
2022-10-21T08:22:42.593Z,1.83
2022-10-21T08:23:45.174Z,2.17
2022-10-21T08:24:48.639Z,1.92
2022-10-21T08:25:52.184Z,2.47
2022-10-21T08:27:03.094Z,1.40
2022-10-21T08:28:07.504Z,1.75
2022-10-21T08:29:10.970Z,1.50
2022-10-21T08:30:15.605Z,1.33
2022-10-21T08:31:26.072Z,0.47
2022-10-21T08:32:29.482Z,0.65
2022-10-21T08:33:32.248Z,1.73
2022-10-21T08:34:36.028Z,0.90
2022-10-21T08:35:45.083Z,0.80
2022-10-21T08:36:48.556Z,0.98
2022-10-21T08:37:51.014Z,1.63
2022-10-21T08:38:55.012Z,0.63
2022-10-21T08:39:58.437Z,1.83
2022-10-21T08:41:09.087Z,1.10
2022-10-21T08:42:23.081Z,1.42
2022-10-21T08:43:28.138Z,2.50
2022-10-21T08:44:34.078Z,1.13
2022-10-21T08:45:39.954Z,2.45
2022-10-21T08:46:52.136Z,2.22
2022-10-21T08:47:57.452Z,0.82
2022-10-21T08:49:02.523Z,1.92
2022-10-21T08:50:07.232Z,0.57
2022-10-21T08:51:13.234Z,1.17
2022-10-21T08:52:25.059Z,1.65
2022-10-21T08:53:32.313Z,1.33
2022-10-21T08:54:42.296Z,0.88
2022-10-21T08:55:46.567Z,0.82
2022-10-21T08:56:50.613Z,1.38
2022-10-21T08:58:02.042Z,1.00
2022-10-21T08:59:05.487Z,0.95
2022-10-21T09:00:15.925Z,1.08
2022-10-21T09:01:27.330Z,1.85
2022-10-21T09:02:49.115Z,1.58
2022-10-21T09:03:54.676Z,2.65
2022-10-21T09:06:29.936Z,0.57
2022-10-21T09:07:35.708Z,1.33
2022-10-21T09:08:48.224Z,1.15
2022-10-21T09:09:55.366Z,1.33
2022-10-21T09:11:01.084Z,1.27
2022-10-21T09:12:07.291Z,1.10
2022-10-21T09:13:16.257Z,0.68
2022-10-21T09:14:53.065Z,2.78
2022-10-21T09:16:00.165Z,1.17
2022-10-21T09:17:06.112Z,2.10
2022-10-21T09:18:23.956Z,1.75
2022-10-21T09:19:32.410Z,1.10
2022-10-21T09:20:55.022Z,0.88
2022-10-21T09:22:16.362Z,1.85
2022-10-21T09:24:37.514Z,0.38
2022-10-21T09:25:50.095Z,1.73
2022-10-21T09:26:54.565Z,0.95
2022-10-21T09:28:04.624Z,1.00
2022-10-21T09:29:30.615Z,1.77
2022-10-21T09:30:34.035Z,1.55
2022-10-21T09:31:43.093Z,1.33
2022-10-21T09:32:51.085Z,0.80
2022-10-21T09:33:57.081Z,0.85
2022-10-21T09:35:01.901Z,3.17
2022-10-21T09:36:08.572Z,0.85
2022-10-21T09:37:22.830Z,1.55
2022-10-21T09:38:29.701Z,0.85
2022-10-21T09:39:37.554Z,0.85
2022-10-21T09:40:41.821Z,0.90
2022-10-21T09:41:45.895Z,0.63
2022-10-21T09:42:58.084Z,1.33
2022-10-21T09:44:01.530Z,1.75
2022-10-21T09:45:05.715Z,1.90
2022-10-21T09:46:12.877Z,1.75
2022-10-21T09:47:19.896Z,1.63
2022-10-21T09:48:42.638Z,1.98
2022-10-21T09:50:07.234Z,0.90
2022-10-21T09:51:15.504Z,0.95
2022-10-21T09:52:19.412Z,1.98
2022-10-21T09:53:31.069Z,1.52
2022-10-21T09:54:37.398Z,1.25
2022-10-21T09:55:41.297Z,1.02
2022-10-21T09:56:45.941Z,1.60
2022-10-21T09:57:51.957Z,1.50
2022-10-21T09:59:12.117Z,2.42
2022-10-21T10:00:16.979Z,1.45
2022-10-21T10:01:28.244Z,1.77
2022-10-21T10:02:45.091Z,1.10
2022-10-21T10:03:49.412Z,0.82
2022-10-21T10:05:00.124Z,2.40
2022-10-21T10:06:04.323Z,1.38
2022-10-21T10:07:21.509Z,2.47
2022-10-21T10:08:32.920Z,0.70
2022-10-21T10:09:44.117Z,1.65
2022-10-21T10:10:47.093Z,1.92
2022-10-21T10:11:53.642Z,1.52
2022-10-21T10:12:57.233Z,1.33
2022-10-21T10:14:18.374Z,1.67
2022-10-21T10:15:33.062Z,1.52
2022-10-21T10:16:36.510Z,1.88
2022-10-21T10:17:39.893Z,1.90
2022-10-21T10:18:42.935Z,1.85
2022-10-21T10:20:13.194Z,1.55
2022-10-21T10:21:17.489Z,1.23
2022-10-21T10:22:20.920Z,1.55
2022-10-21T10:23:23.486Z,1.38
2022-10-21T10:24:26.942Z,1.42
2022-10-21T10:25:39.134Z,1.85
2022-10-21T10:26:49.108Z,2.17
2022-10-21T10:27:54.218Z,2.15
2022-10-21T10:28:59.032Z,1.92
2022-10-21T10:30:02.141Z,1.15
2022-10-21T10:31:13.161Z,1.88
2022-10-21T10:32:24.176Z,0.85
2022-10-21T10:33:28.797Z,1.85
2022-10-21T10:34:34.134Z,1.27
2022-10-21T10:35:38.953Z,2.05
2022-10-21T10:36:42.944Z,1.60
2022-10-21T10:37:54.163Z,1.27
2022-10-21T10:38:59.317Z,1.63
2022-10-21T10:40:04.948Z,2.08
2022-10-21T10:41:17.107Z,0.75
2022-10-21T10:42:21.882Z,1.73
2022-10-21T10:43:25.754Z,1.65
2022-10-21T10:44:31.627Z,2.63
2022-10-21T10:45:34.197Z,2.15
2022-10-21T10:47:49.718Z,1.70
2022-10-21T10:48:53.940Z,0.98
2022-10-21T10:49:56.772Z,1.50
2022-10-21T10:51:00.253Z,1.45
2022-10-21T10:52:14.265Z,0.90
2022-10-21T10:53:31.110Z,0.70
2022-10-21T10:54:33.766Z,1.48
2022-10-21T10:55:37.573Z,2.13
2022-10-21T10:56:43.716Z,2.03
2022-10-21T10:58:09.687Z,2.05
2022-10-21T10:59:17.461Z,2.72
2022-10-21T11:00:22.172Z,2.78
2022-10-21T11:01:47.074Z,2.22
2022-10-21T11:03:03.189Z,1.20
2022-10-21T11:04:18.310Z,1.55
2022-10-21T11:05:23.617Z,2.13
2022-10-21T11:06:35.098Z,1.50
2022-10-21T11:07:40.464Z,1.75
2022-10-21T11:08:53.763Z,1.67
2022-10-21T11:10:00.787Z,1.38
2022-10-21T11:11:05.693Z,1.95
2022-10-21T11:12:12.647Z,1.52
2022-10-21T11:13:19.635Z,1.50
2022-10-21T11:14:30.129Z,2.75
2022-10-21T11:15:43.342Z,1.13
2022-10-21T11:17:00.192Z,2.13
2022-10-21T11:18:24.121Z,1.23
2022-10-21T11:19:38.185Z,1.90
2022-10-21T11:20:43.488Z,0.57
2022-10-21T11:21:48.368Z,1.67
2022-10-21T11:22:58.043Z,2.65
2022-10-21T11:24:52.133Z,0.85
2022-10-21T11:26:05.119Z,1.10
2022-10-21T11:27:13.443Z,1.20
2022-10-21T11:28:22.260Z,1.63
2022-10-21T11:29:29.133Z,2.00
2022-10-21T11:30:36.199Z,2.42
2022-10-21T11:32:10.022Z,2.28
2022-10-21T11:33:20.831Z,1.48
2022-10-21T11:34:27.353Z,1.38
2022-10-21T11:35:41.944Z,2.28
2022-10-21T11:36:56.161Z,1.50
2022-10-21T11:38:04.832Z,1.48
2022-10-21T11:39:30.822Z,2.00
2022-10-21T11:40:38.197Z,1.33
2022-10-21T11:41:50.155Z,1.88
2022-10-21T11:42:53.344Z,2.47
2022-10-21T11:43:59.945Z,1.38
2022-10-21T11:45:14.466Z,1.63
2022-10-21T11:46:19.664Z,2.50
2022-10-21T11:47:37.154Z,0.82
2022-10-21T11:48:58.999Z,1.40
2022-10-21T11:50:10.504Z,1.95
2022-10-21T11:51:20.017Z,1.65
2022-10-21T11:52:29.402Z,1.52
2022-10-21T11:53:43.121Z,2.55
2022-10-21T11:55:09.894Z,1.20
2022-10-21T11:56:19.011Z,0.82
2022-10-21T11:57:25.696Z,1.52
2022-10-21T11:58:41.078Z,1.58
2022-10-21T11:59:54.191Z,0.90
2022-10-21T12:01:16.075Z,2.40
2022-10-21T12:02:41.843Z,2.05
2022-10-21T12:04:00.095Z,1.05
2022-10-21T12:05:09.417Z,1.40
2022-10-21T12:06:20.275Z,0.95
2022-10-21T12:07:37.944Z,1.65
2022-10-21T12:08:59.132Z,1.60
2022-10-21T12:10:05.140Z,1.27
2022-10-21T12:11:12.844Z,1.63
2022-10-21T12:12:23.099Z,3.13
2022-10-21T12:13:28.352Z,1.95
2022-10-21T12:14:33.703Z,0.98
2022-10-21T12:15:41.344Z,1.20
2022-10-21T12:16:45.857Z,2.13
2022-10-21T12:17:57.089Z,1.13
2022-10-21T12:19:01.971Z,0.38
2022-10-21T12:20:08.169Z,2.42
2022-10-21T12:21:12.517Z,1.65
2022-10-21T12:22:16.181Z,2.83
2022-10-21T12:23:26.121Z,4.70
2022-10-21T12:24:36.618Z,3.08
2022-10-21T12:25:43.570Z,1.70
2022-10-21T12:26:50.649Z,1.25
2022-10-21T12:28:05.283Z,2.70
2022-10-21T12:29:13.304Z,1.58
2022-10-21T12:30:20.049Z,0.85
2022-10-21T12:31:30.167Z,2.70
2022-10-21T12:32:46.084Z,1.63
2022-10-21T12:33:49.996Z,2.58
2022-10-21T12:34:53.763Z,2.80
2022-10-21T12:36:22.126Z,2.42
2022-10-21T12:37:53.134Z,1.27
2022-10-21T12:38:57.292Z,2.40
2022-10-21T12:40:09.936Z,2.63
2022-10-21T12:41:39.165Z,3.17
2022-10-21T12:42:45.706Z,0.95
2022-10-21T12:43:54.450Z,2.28
2022-10-21T12:44:57.940Z,2.38
2022-10-21T12:46:05.191Z,2.53
2022-10-21T12:47:30.154Z,1.83
2022-10-21T12:48:41.355Z,2.20
2022-10-21T12:49:45.334Z,1.42
2022-10-21T12:50:56.792Z,3.17
2022-10-21T12:52:06.781Z,1.98
2022-10-21T12:53:25.093Z,1.25
2022-10-21T12:54:36.509Z,1.23
2022-10-21T12:55:41.090Z,2.63
2022-10-21T12:56:45.615Z,1.35
2022-10-21T12:57:57.265Z,1.08
2022-10-21T12:59:03.501Z,2.42
2022-10-21T13:00:41.216Z,1.00
2022-10-21T13:02:24.164Z,1.23
2022-10-21T13:03:52.178Z,1.45
2022-10-21T13:04:58.058Z,1.88
2022-10-21T13:06:06.290Z,2.85
2022-10-21T13:07:28.209Z,2.60
2022-10-21T13:08:41.699Z,2.53
2022-10-21T13:10:13.119Z,1.58
2022-10-21T13:11:24.763Z,1.80
2022-10-21T13:12:29.523Z,1.52
2022-10-21T13:13:35.523Z,0.85
2022-10-21T13:14:48.171Z,2.40
2022-10-21T13:15:51.635Z,2.10
2022-10-21T13:17:02.133Z,2.30
2022-10-21T13:18:05.591Z,1.88
2022-10-21T13:19:33.655Z,1.38
2022-10-21T13:20:53.176Z,2.33
2022-10-21T13:22:03.370Z,1.48
2022-10-21T13:23:31.343Z,2.38
2022-10-21T13:24:36.584Z,1.00
2022-10-21T13:25:39.371Z,2.22
2022-10-21T13:26:44.302Z,3.28
2022-10-21T13:27:50.763Z,3.47
2022-10-21T13:29:10.337Z,3.67
2022-10-21T13:30:28.453Z,4.68
2022-10-21T13:31:31.151Z,1.27
2022-10-21T13:32:36.254Z,2.75
2022-10-21T13:33:39.605Z,1.58
2022-10-21T13:34:51.107Z,2.20
2022-10-21T13:35:56.135Z,3.10
2022-10-21T13:36:58.767Z,2.05
2022-10-21T13:38:07.509Z,7.60
2022-10-21T13:39:29.152Z,17.45
2022-10-21T13:40:45.137Z,14.93
2022-10-21T13:41:55.134Z,8.00
2022-10-21T13:43:00.225Z,4.75
2022-10-21T13:44:04.356Z,4.72
2022-10-21T13:45:25.146Z,2.13
2022-10-21T13:46:31.176Z,1.70
2022-10-21T13:47:41.418Z,1.33
2022-10-21T13:48:45.942Z,1.83
2022-10-21T13:49:51.916Z,1.45
2022-10-21T13:50:55.846Z,2.30
2022-10-21T13:52:05.146Z,1.65
2022-10-21T13:53:23.609Z,4.35
2022-10-21T13:54:26.433Z,0.98
2022-10-21T13:55:29.903Z,2.42
2022-10-21T13:56:35.979Z,1.10
2022-10-21T13:57:45.187Z,1.63
2022-10-21T13:58:49.240Z,1.95
2022-10-21T14:00:00.744Z,2.28
2022-10-21T14:01:10.699Z,1.73
2022-10-21T14:02:39.122Z,1.10
2022-10-21T14:03:50.169Z,1.65
2022-10-21T14:04:53.946Z,1.27
2022-10-21T14:05:58.257Z,2.97
2022-10-21T14:07:10.160Z,1.38
2022-10-21T14:08:19.065Z,1.80
2022-10-21T14:09:31.174Z,3.08
2022-10-21T14:10:34.671Z,1.60
2022-10-21T14:11:45.398Z,2.28
2022-10-21T14:12:55.219Z,2.47
2022-10-21T14:13:59.903Z,1.17
2022-10-21T14:15:11.165Z,2.63
2022-10-21T14:16:27.350Z,1.58
2022-10-21T14:17:37.379Z,1.73
2022-10-21T14:18:43.482Z,1.20
2022-10-21T14:19:48.581Z,2.55
2022-10-21T14:20:53.461Z,3.90
2022-10-21T14:21:58.967Z,2.00
2022-10-21T14:23:10.179Z,1.38
2022-10-21T14:24:26.825Z,2.35
2022-10-21T14:25:29.556Z,1.98
2022-10-21T14:26:33.611Z,2.63
2022-10-21T14:27:37.524Z,1.88
2022-10-21T14:28:48.178Z,1.95
2022-10-21T14:29:57.189Z,2.60
2022-10-21T14:31:01.407Z,2.35
2022-10-21T14:32:04.588Z,1.77
2022-10-21T14:33:08.672Z,3.03
2022-10-21T14:34:27.167Z,1.40
2022-10-21T14:35:30.192Z,3.70
2022-10-21T14:36:33.731Z,2.70
2022-10-21T14:37:37.350Z,1.73
2022-10-21T14:38:42.837Z,2.45
2022-10-21T14:39:53.145Z,1.40
2022-10-21T14:41:00.389Z,1.83
2022-10-21T14:42:12.194Z,1.27
2022-10-21T14:43:19.990Z,2.05
2022-10-21T14:44:25.396Z,1.65
2022-10-21T14:45:28.895Z,1.50
2022-10-21T14:46:32.635Z,1.52
2022-10-21T14:47:42.158Z,2.60
2022-10-21T14:48:49.941Z,1.85
2022-10-21T14:50:00.323Z,1.85
2022-10-21T14:51:04.888Z,2.70
2022-10-21T14:52:08.786Z,1.10
2022-10-21T14:53:16.243Z,2.25
2022-10-21T14:54:26.131Z,2.88
2022-10-21T14:55:37.173Z,1.98
2022-10-21T14:56:41.749Z,2.20
2022-10-21T14:57:47.636Z,1.40
2022-10-21T14:59:04.262Z,2.03
2022-10-21T15:00:10.276Z,1.05
2022-10-21T15:01:17.878Z,3.38
2022-10-21T15:02:42.541Z,1.98
2022-10-21T15:03:46.790Z,2.45
2022-10-21T15:05:01.182Z,1.13
2022-10-21T15:06:11.903Z,1.77
2022-10-21T15:07:17.391Z,2.58
2022-10-21T15:08:32.553Z,3.20
2022-10-21T15:09:36.251Z,2.88
2022-10-21T15:10:45.225Z,3.30
2022-10-21T15:11:49.119Z,2.40
2022-10-21T15:12:52.857Z,3.00
2022-10-21T15:14:01.898Z,3.00